sensor_id;sensor_type;location;lat;lon;timestamp;P1;durP1;ratioP1;P2;durP2;ratioP2
54977;SDS011;40873;47.522;19.106;2022-07-23T00:00:17;9.75;;;7.10;;
54977;SDS011;40873;47.522;19.106;2022-07-23T00:03:01;11.15;;;7.18;;
54977;SDS011;40873;47.522;19.106;2022-07-23T00:05:28;10.85;;;8.13;;
54977;SDS011;40873;47.522;19.106;2022-07-23T00:07:55;11.32;;;7.18;;
54977;SDS011;40873;47.522;19.106;2022-07-23T00:10:22;13.25;;;7.65;;
54977;SDS011;40873;47.522;19.106;2022-07-23T00:12:49;14.50;;;7.10;;
54977;SDS011;40873;47.522;19.106;2022-07-23T00:15:17;9.43;;;6.53;;
54977;SDS011;40873;47.522;19.106;2022-07-23T00:17:44;10.98;;;6.88;;
54977;SDS011;40873;47.522;19.106;2022-07-23T00:20:11;12.13;;;6.97;;
54977;SDS011;40873;47.522;19.106;2022-07-23T00:22:48;12.43;;;6.70;;
54977;SDS011;40873;47.522;19.106;2022-07-23T00:25:23;11.70;;;6.75;;
54977;SDS011;40873;47.522;19.106;2022-07-23T00:27:54;10.85;;;7.05;;
54977;SDS011;40873;47.522;19.106;2022-07-23T00:30:21;9.77;;;6.60;;
54977;SDS011;40873;47.522;19.106;2022-07-23T00:32:48;10.75;;;6.80;;
54977;SDS011;40873;47.522;19.106;2022-07-23T00:35:26;12.43;;;6.63;;
54977;SDS011;40873;47.522;19.106;2022-07-23T00:37:54;9.45;;;6.55;;
54977;SDS011;40873;47.522;19.106;2022-07-23T00:40:21;10.38;;;6.72;;
54977;SDS011;40873;47.522;19.106;2022-07-23T00:42:48;9.98;;;7.28;;
54977;SDS011;40873;47.522;19.106;2022-07-23T00:45:16;11.57;;;6.75;;
54977;SDS011;40873;47.522;19.106;2022-07-23T00:47:42;9.48;;;6.43;;
54977;SDS011;40873;47.522;19.106;2022-07-23T00:50:09;12.95;;;7.05;;
54977;SDS011;40873;47.522;19.106;2022-07-23T00:52:38;10.35;;;6.95;;
54977;SDS011;40873;47.522;19.106;2022-07-23T00:55:05;11.85;;;7.10;;
54977;SDS011;40873;47.522;19.106;2022-07-23T00:57:34;9.93;;;6.93;;
54977;SDS011;40873;47.522;19.106;2022-07-23T01:00:03;14.38;;;6.68;;
54977;SDS011;40873;47.522;19.106;2022-07-23T01:02:31;11.30;;;6.38;;
54977;SDS011;40873;47.522;19.106;2022-07-23T01:04:59;11.98;;;7.07;;
54977;SDS011;40873;47.522;19.106;2022-07-23T01:07:26;12.02;;;7.05;;
54977;SDS011;40873;47.522;19.106;2022-07-23T01:09:53;11.52;;;7.28;;
54977;SDS011;40873;47.522;19.106;2022-07-23T01:12:21;9.60;;;6.60;;
54977;SDS011;40873;47.522;19.106;2022-07-23T01:14:58;10.52;;;6.45;;
54977;SDS011;40873;47.522;19.106;2022-07-23T01:17:26;8.70;;;6.13;;
54977;SDS011;40873;47.522;19.106;2022-07-23T01:19:53;10.18;;;7.13;;
54977;SDS011;40873;47.522;19.106;2022-07-23T01:22:20;14.18;;;6.95;;
54977;SDS011;40873;47.522;19.106;2022-07-23T01:24:47;13.55;;;7.70;;
54977;SDS011;40873;47.522;19.106;2022-07-23T01:27:14;11.93;;;6.93;;
54977;SDS011;40873;47.522;19.106;2022-07-23T01:29:44;10.63;;;7.05;;
54977;SDS011;40873;47.522;19.106;2022-07-23T01:32:11;14.63;;;6.95;;
54977;SDS011;40873;47.522;19.106;2022-07-23T01:34:38;14.57;;;7.72;;
54977;SDS011;40873;47.522;19.106;2022-07-23T01:37:06;14.07;;;7.80;;
54977;SDS011;40873;47.522;19.106;2022-07-23T01:39:33;13.98;;;7.72;;
54977;SDS011;40873;47.522;19.106;2022-07-23T01:42:00;9.13;;;6.82;;
54977;SDS011;40873;47.522;19.106;2022-07-23T01:44:27;12.70;;;7.15;;
54977;SDS011;40873;47.522;19.106;2022-07-23T01:46:55;12.52;;;6.65;;
54977;SDS011;40873;47.522;19.106;2022-07-23T01:49:22;13.63;;;7.95;;
54977;SDS011;40873;47.522;19.106;2022-07-23T01:51:48;11.48;;;7.43;;
54977;SDS011;40873;47.522;19.106;2022-07-23T01:54:28;11.70;;;7.53;;
54977;SDS011;40873;47.522;19.106;2022-07-23T01:56:57;11.80;;;7.32;;
54977;SDS011;40873;47.522;19.106;2022-07-23T01:59:24;8.90;;;7.47;;
54977;SDS011;40873;47.522;19.106;2022-07-23T02:01:52;10.23;;;7.22;;
54977;SDS011;40873;47.522;19.106;2022-07-23T02:04:20;11.20;;;6.95;;
54977;SDS011;40873;47.522;19.106;2022-07-23T02:06:47;14.05;;;7.18;;
54977;SDS011;40873;47.522;19.106;2022-07-23T02:09:15;11.50;;;6.20;;
54977;SDS011;40873;47.522;19.106;2022-07-23T02:11:43;7.18;;;6.43;;
54977;SDS011;40873;47.522;19.106;2022-07-23T02:14:10;11.13;;;6.28;;
54977;SDS011;40873;47.522;19.106;2022-07-23T02:16:37;9.45;;;6.35;;
54977;SDS011;40873;47.522;19.106;2022-07-23T02:19:04;10.75;;;6.45;;
54977;SDS011;40873;47.522;19.106;2022-07-23T02:21:31;8.38;;;6.85;;
54977;SDS011;40873;47.522;19.106;2022-07-23T02:23:58;9.13;;;6.88;;
54977;SDS011;40873;47.522;19.106;2022-07-23T02:26:25;9.40;;;6.85;;
54977;SDS011;40873;47.522;19.106;2022-07-23T02:28:51;11.00;;;6.35;;
54977;SDS011;40873;47.522;19.106;2022-07-23T02:31:19;10.77;;;6.55;;
54977;SDS011;40873;47.522;19.106;2022-07-23T02:33:47;10.93;;;6.07;;
54977;SDS011;40873;47.522;19.106;2022-07-23T02:36:13;13.18;;;6.70;;
54977;SDS011;40873;47.522;19.106;2022-07-23T02:38:40;9.85;;;6.60;;
54977;SDS011;40873;47.522;19.106;2022-07-23T02:41:07;8.95;;;6.30;;
54977;SDS011;40873;47.522;19.106;2022-07-23T02:43:35;9.00;;;7.10;;
54977;SDS011;40873;47.522;19.106;2022-07-23T02:46:02;9.15;;;6.70;;
54977;SDS011;40873;47.522;19.106;2022-07-23T02:48:29;10.50;;;5.78;;
54977;SDS011;40873;47.522;19.106;2022-07-23T02:50:56;10.25;;;6.30;;
54977;SDS011;40873;47.522;19.106;2022-07-23T02:53:23;11.75;;;7.10;;
54977;SDS011;40873;47.522;19.106;2022-07-23T02:55:50;9.80;;;6.18;;
54977;SDS011;40873;47.522;19.106;2022-07-23T02:58:17;11.38;;;6.10;;
54977;SDS011;40873;47.522;19.106;2022-07-23T03:00:44;12.10;;;6.28;;
54977;SDS011;40873;47.522;19.106;2022-07-23T03:03:11;11.70;;;6.47;;
54977;SDS011;40873;47.522;19.106;2022-07-23T03:05:37;11.43;;;6.18;;
54977;SDS011;40873;47.522;19.106;2022-07-23T03:08:05;13.32;;;6.25;;
54977;SDS011;40873;47.522;19.106;2022-07-23T03:10:31;10.38;;;6.50;;
54977;SDS011;40873;47.522;19.106;2022-07-23T03:12:58;15.43;;;6.47;;
54977;SDS011;40873;47.522;19.106;2022-07-23T03:15:25;10.13;;;6.45;;
54977;SDS011;40873;47.522;19.106;2022-07-23T03:17:52;13.73;;;5.85;;
54977;SDS011;40873;47.522;19.106;2022-07-23T03:20:19;14.13;;;6.50;;
54977;SDS011;40873;47.522;19.106;2022-07-23T03:22:46;20.65;;;6.85;;
54977;SDS011;40873;47.522;19.106;2022-07-23T03:25:12;23.33;;;6.43;;
54977;SDS011;40873;47.522;19.106;2022-07-23T03:27:39;10.30;;;5.97;;
54977;SDS011;40873;47.522;19.106;2022-07-23T03:30:07;15.23;;;6.72;;
54977;SDS011;40873;47.522;19.106;2022-07-23T03:32:34;8.75;;;5.55;;
54977;SDS011;40873;47.522;19.106;2022-07-23T03:35:00;12.07;;;5.32;;
54977;SDS011;40873;47.522;19.106;2022-07-23T03:37:28;11.15;;;5.80;;
54977;SDS011;40873;47.522;19.106;2022-07-23T03:39:55;9.45;;;5.43;;
54977;SDS011;40873;47.522;19.106;2022-07-23T03:42:22;9.50;;;5.40;;
54977;SDS011;40873;47.522;19.106;2022-07-23T03:44:49;11.68;;;6.28;;
54977;SDS011;40873;47.522;19.106;2022-07-23T03:47:16;9.60;;;6.03;;
54977;SDS011;40873;47.522;19.106;2022-07-23T03:49:43;11.95;;;6.40;;
54977;SDS011;40873;47.522;19.106;2022-07-23T03:52:10;12.32;;;6.00;;
54977;SDS011;40873;47.522;19.106;2022-07-23T03:54:37;14.02;;;6.13;;
54977;SDS011;40873;47.522;19.106;2022-07-23T03:57:04;11.52;;;6.35;;
54977;SDS011;40873;47.522;19.106;2022-07-23T03:59:32;9.63;;;5.78;;
54977;SDS011;40873;47.522;19.106;2022-07-23T04:01:58;10.38;;;7.43;;
54977;SDS011;40873;47.522;19.106;2022-07-23T04:04:25;11.55;;;5.57;;
54977;SDS011;40873;47.522;19.106;2022-07-23T04:06:52;10.48;;;5.15;;
54977;SDS011;40873;47.522;19.106;2022-07-23T04:09:19;12.25;;;5.72;;
54977;SDS011;40873;47.522;19.106;2022-07-23T04:11:46;10.32;;;6.25;;
54977;SDS011;40873;47.522;19.106;2022-07-23T04:14:13;15.65;;;5.95;;
54977;SDS011;40873;47.522;19.106;2022-07-23T04:16:40;12.75;;;5.70;;
54977;SDS011;40873;47.522;19.106;2022-07-23T04:19:06;12.10;;;6.53;;
54977;SDS011;40873;47.522;19.106;2022-07-23T04:21:33;10.10;;;6.25;;
54977;SDS011;40873;47.522;19.106;2022-07-23T04:24:00;15.70;;;5.30;;
54977;SDS011;40873;47.522;19.106;2022-07-23T04:26:27;10.88;;;5.63;;
54977;SDS011;40873;47.522;19.106;2022-07-23T04:28:54;6.30;;;5.15;;
54977;SDS011;40873;47.522;19.106;2022-07-23T04:31:22;8.00;;;5.13;;
54977;SDS011;40873;47.522;19.106;2022-07-23T04:33:49;9.30;;;5.63;;
54977;SDS011;40873;47.522;19.106;2022-07-23T04:36:16;6.68;;;4.88;;
54977;SDS011;40873;47.522;19.106;2022-07-23T04:38:42;8.98;;;5.50;;
54977;SDS011;40873;47.522;19.106;2022-07-23T04:41:09;7.78;;;5.25;;
54977;SDS011;40873;47.522;19.106;2022-07-23T04:43:36;9.68;;;5.47;;
54977;SDS011;40873;47.522;19.106;2022-07-23T04:46:03;6.97;;;5.05;;
54977;SDS011;40873;47.522;19.106;2022-07-23T04:48:31;9.80;;;4.78;;
54977;SDS011;40873;47.522;19.106;2022-07-23T04:50:58;6.05;;;4.85;;
54977;SDS011;40873;47.522;19.106;2022-07-23T04:53:25;7.43;;;5.25;;
54977;SDS011;40873;47.522;19.106;2022-07-23T04:55:52;7.90;;;5.10;;
54977;SDS011;40873;47.522;19.106;2022-07-23T04:58:19;6.85;;;5.18;;
54977;SDS011;40873;47.522;19.106;2022-07-23T05:00:46;11.73;;;5.93;;
54977;SDS011;40873;47.522;19.106;2022-07-23T05:03:14;9.98;;;6.55;;
54977;SDS011;40873;47.522;19.106;2022-07-23T05:05:41;8.93;;;5.63;;
54977;SDS011;40873;47.522;19.106;2022-07-23T05:08:08;7.75;;;5.05;;
54977;SDS011;40873;47.522;19.106;2022-07-23T05:10:35;9.13;;;4.78;;
54977;SDS011;40873;47.522;19.106;2022-07-23T05:13:02;6.25;;;5.10;;
54977;SDS011;40873;47.522;19.106;2022-07-23T05:15:30;6.95;;;5.00;;
54977;SDS011;40873;47.522;19.106;2022-07-23T05:17:56;7.47;;;4.97;;
54977;SDS011;40873;47.522;19.106;2022-07-23T05:20:23;12.55;;;5.93;;
54977;SDS011;40873;47.522;19.106;2022-07-23T05:22:50;7.93;;;4.85;;
54977;SDS011;40873;47.522;19.106;2022-07-23T05:25:17;12.00;;;4.47;;
54977;SDS011;40873;47.522;19.106;2022-07-23T05:27:44;9.10;;;5.03;;
54977;SDS011;40873;47.522;19.106;2022-07-23T05:30:11;6.20;;;4.50;;
54977;SDS011;40873;47.522;19.106;2022-07-23T05:32:39;10.65;;;4.97;;
54977;SDS011;40873;47.522;19.106;2022-07-23T05:35:06;13.07;;;5.47;;
54977;SDS011;40873;47.522;19.106;2022-07-23T05:37:34;7.88;;;4.35;;
54977;SDS011;40873;47.522;19.106;2022-07-23T05:40:04;11.43;;;4.53;;
54977;SDS011;40873;47.522;19.106;2022-07-23T05:42:34;6.50;;;4.63;;
54977;SDS011;40873;47.522;19.106;2022-07-23T05:45:01;8.38;;;4.38;;
54977;SDS011;40873;47.522;19.106;2022-07-23T05:47:38;7.85;;;4.38;;
54977;SDS011;40873;47.522;19.106;2022-07-23T05:50:06;6.32;;;4.43;;
54977;SDS011;40873;47.522;19.106;2022-07-23T05:52:33;7.53;;;4.72;;
54977;SDS011;40873;47.522;19.106;2022-07-23T05:55:00;6.57;;;4.80;;
54977;SDS011;40873;47.522;19.106;2022-07-23T05:57:27;9.80;;;4.22;;
54977;SDS011;40873;47.522;19.106;2022-07-23T05:59:53;5.90;;;4.32;;
54977;SDS011;40873;47.522;19.106;2022-07-23T06:02:20;7.20;;;4.50;;
54977;SDS011;40873;47.522;19.106;2022-07-23T06:04:47;7.40;;;4.03;;
54977;SDS011;40873;47.522;19.106;2022-07-23T06:07:14;10.48;;;5.03;;
54977;SDS011;40873;47.522;19.106;2022-07-23T06:09:41;12.35;;;4.93;;
54977;SDS011;40873;47.522;19.106;2022-07-23T06:12:08;9.60;;;4.07;;
54977;SDS011;40873;47.522;19.106;2022-07-23T06:14:34;8.93;;;4.57;;
54977;SDS011;40873;47.522;19.106;2022-07-23T06:17:01;6.57;;;4.10;;
54977;SDS011;40873;47.522;19.106;2022-07-23T06:19:28;7.57;;;4.10;;
54977;SDS011;40873;47.522;19.106;2022-07-23T06:21:55;7.88;;;4.07;;
54977;SDS011;40873;47.522;19.106;2022-07-23T06:24:22;9.40;;;4.47;;
54977;SDS011;40873;47.522;19.106;2022-07-23T06:26:49;9.85;;;4.53;;
54977;SDS011;40873;47.522;19.106;2022-07-23T06:29:16;10.07;;;4.40;;
54977;SDS011;40873;47.522;19.106;2022-07-23T06:31:43;10.38;;;4.35;;
54977;SDS011;40873;47.522;19.106;2022-07-23T06:34:10;6.28;;;3.53;;
54977;SDS011;40873;47.522;19.106;2022-07-23T06:36:37;7.88;;;4.55;;
54977;SDS011;40873;47.522;19.106;2022-07-23T06:39:03;9.18;;;4.95;;
54977;SDS011;40873;47.522;19.106;2022-07-23T06:41:31;5.85;;;4.10;;
54977;SDS011;40873;47.522;19.106;2022-07-23T06:43:58;10.18;;;4.30;;
54977;SDS011;40873;47.522;19.106;2022-07-23T06:46:25;6.97;;;4.35;;
54977;SDS011;40873;47.522;19.106;2022-07-23T06:48:52;10.43;;;4.53;;
54977;SDS011;40873;47.522;19.106;2022-07-23T06:51:19;7.13;;;4.40;;
54977;SDS011;40873;47.522;19.106;2022-07-23T06:53:45;6.07;;;4.20;;
54977;SDS011;40873;47.522;19.106;2022-07-23T06:56:13;8.63;;;4.63;;
54977;SDS011;40873;47.522;19.106;2022-07-23T06:58:39;9.75;;;4.32;;
54977;SDS011;40873;47.522;19.106;2022-07-23T07:01:06;8.80;;;3.80;;
54977;SDS011;40873;47.522;19.106;2022-07-23T07:03:33;9.50;;;4.47;;
54977;SDS011;40873;47.522;19.106;2022-07-23T07:06:00;6.75;;;4.40;;
54977;SDS011;40873;47.522;19.106;2022-07-23T07:08:27;12.27;;;5.00;;
54977;SDS011;40873;47.522;19.106;2022-07-23T07:10:54;7.65;;;4.40;;
54977;SDS011;40873;47.522;19.106;2022-07-23T07:13:21;8.05;;;4.03;;
54977;SDS011;40873;47.522;19.106;2022-07-23T07:15:48;10.30;;;4.80;;
54977;SDS011;40873;47.522;19.106;2022-07-23T07:18:15;10.13;;;4.43;;
54977;SDS011;40873;47.522;19.106;2022-07-23T07:20:42;13.60;;;4.53;;
54977;SDS011;40873;47.522;19.106;2022-07-23T07:23:08;9.10;;;4.47;;
54977;SDS011;40873;47.522;19.106;2022-07-23T07:25:36;8.98;;;4.63;;
54977;SDS011;40873;47.522;19.106;2022-07-23T07:28:02;9.52;;;4.35;;
54977;SDS011;40873;47.522;19.106;2022-07-23T07:30:29;6.35;;;4.85;;
54977;SDS011;40873;47.522;19.106;2022-07-23T07:33:00;10.45;;;4.60;;
54977;SDS011;40873;47.522;19.106;2022-07-23T07:35:27;10.13;;;4.38;;
54977;SDS011;40873;47.522;19.106;2022-07-23T07:37:53;7.40;;;4.63;;
54977;SDS011;40873;47.522;19.106;2022-07-23T07:40:21;10.35;;;4.70;;
54977;SDS011;40873;47.522;19.106;2022-07-23T07:42:48;8.90;;;5.10;;
54977;SDS011;40873;47.522;19.106;2022-07-23T07:45:17;7.07;;;4.47;;
54977;SDS011;40873;47.522;19.106;2022-07-23T07:47:46;7.38;;;4.60;;
54977;SDS011;40873;47.522;19.106;2022-07-23T07:50:13;6.72;;;5.10;;
54977;SDS011;40873;47.522;19.106;2022-07-23T07:52:40;9.88;;;4.78;;
54977;SDS011;40873;47.522;19.106;2022-07-23T07:55:08;8.02;;;5.05;;
54977;SDS011;40873;47.522;19.106;2022-07-23T07:57:36;8.50;;;4.70;;
54977;SDS011;40873;47.522;19.106;2022-07-23T08:00:06;8.10;;;4.60;;
54977;SDS011;40873;47.522;19.106;2022-07-23T08:02:44;11.10;;;5.78;;
54977;SDS011;40873;47.522;19.106;2022-07-23T08:05:12;8.15;;;4.30;;
54977;SDS011;40873;47.522;19.106;2022-07-23T08:07:39;6.22;;;4.63;;
54977;SDS011;40873;47.522;19.106;2022-07-23T08:10:07;7.32;;;4.63;;
54977;SDS011;40873;47.522;19.106;2022-07-23T08:12:46;9.65;;;5.07;;
54977;SDS011;40873;47.522;19.106;2022-07-23T08:15:17;9.90;;;4.85;;
54977;SDS011;40873;47.522;19.106;2022-07-23T08:17:45;8.10;;;4.28;;
54977;SDS011;40873;47.522;19.106;2022-07-23T08:20:14;8.63;;;4.72;;
54977;SDS011;40873;47.522;19.106;2022-07-23T08:22:43;12.95;;;4.68;;
54977;SDS011;40873;47.522;19.106;2022-07-23T08:25:15;8.88;;;4.10;;
54977;SDS011;40873;47.522;19.106;2022-07-23T08:27:43;8.57;;;4.20;;
54977;SDS011;40873;47.522;19.106;2022-07-23T08:30:10;8.00;;;4.90;;
54977;SDS011;40873;47.522;19.106;2022-07-23T08:35:26;7.10;;;4.82;;
54977;SDS011;40873;47.522;19.106;2022-07-23T08:37:55;5.03;;;4.00;;
54977;SDS011;40873;47.522;19.106;2022-07-23T08:40:22;7.18;;;4.60;;
54977;SDS011;40873;47.522;19.106;2022-07-23T08:42:52;8.70;;;4.15;;
54977;SDS011;40873;47.522;19.106;2022-07-23T08:45:20;9.88;;;3.97;;
54977;SDS011;40873;47.522;19.106;2022-07-23T08:47:52;8.05;;;4.63;;
54977;SDS011;40873;47.522;19.106;2022-07-23T08:50:21;5.03;;;4.35;;
54977;SDS011;40873;47.522;19.106;2022-07-23T08:52:50;9.27;;;4.63;;
54977;SDS011;40873;47.522;19.106;2022-07-23T08:55:18;5.07;;;4.13;;
54977;SDS011;40873;47.522;19.106;2022-07-23T08:57:50;10.82;;;4.43;;
54977;SDS011;40873;47.522;19.106;2022-07-23T09:00:19;8.98;;;4.78;;
54977;SDS011;40873;47.522;19.106;2022-07-23T09:02:47;7.35;;;3.92;;
54977;SDS011;40873;47.522;19.106;2022-07-23T09:05:15;9.10;;;4.22;;
54977;SDS011;40873;47.522;19.106;2022-07-23T09:16:17;7.85;;;3.65;;
54977;SDS011;40873;47.522;19.106;2022-07-23T09:18:46;9.50;;;3.75;;
54977;SDS011;40873;47.522;19.106;2022-07-23T09:21:25;9.35;;;5.35;;
54977;SDS011;40873;47.522;19.106;2022-07-23T09:31:55;8.93;;;4.00;;
54977;SDS011;40873;47.522;19.106;2022-07-23T09:34:28;10.40;;;4.38;;
54977;SDS011;40873;47.522;19.106;2022-07-23T09:36:58;5.30;;;3.90;;
54977;SDS011;40873;47.522;19.106;2022-07-23T09:39:36;7.13;;;4.25;;
54977;SDS011;40873;47.522;19.106;2022-07-23T09:44:41;9.40;;;4.43;;
54977;SDS011;40873;47.522;19.106;2022-07-23T09:47:09;6.93;;;3.67;;
54977;SDS011;40873;47.522;19.106;2022-07-23T09:49:36;7.30;;;4.40;;
54977;SDS011;40873;47.522;19.106;2022-07-23T09:52:03;6.55;;;4.25;;
54977;SDS011;40873;47.522;19.106;2022-07-23T09:57:09;6.97;;;3.80;;
54977;SDS011;40873;47.522;19.106;2022-07-23T09:59:43;5.05;;;3.70;;
54977;SDS011;40873;47.522;19.106;2022-07-23T10:02:13;9.02;;;4.30;;
54977;SDS011;40873;47.522;19.106;2022-07-23T10:04:41;11.25;;;3.90;;
54977;SDS011;40873;47.522;19.106;2022-07-23T10:07:10;4.30;;;3.78;;
54977;SDS011;40873;47.522;19.106;2022-07-23T10:09:38;10.75;;;4.03;;
54977;SDS011;40873;47.522;19.106;2022-07-23T10:12:10;8.38;;;3.35;;
54977;SDS011;40873;47.522;19.106;2022-07-23T10:14:41;4.50;;;3.50;;
54977;SDS011;40873;47.522;19.106;2022-07-23T10:17:09;9.85;;;3.70;;
54977;SDS011;40873;47.522;19.106;2022-07-23T10:19:36;6.13;;;3.60;;
54977;SDS011;40873;47.522;19.106;2022-07-23T10:22:14;6.88;;;3.85;;
54977;SDS011;40873;47.522;19.106;2022-07-23T10:36:56;5.60;;;3.75;;
54977;SDS011;40873;47.522;19.106;2022-07-23T10:39:28;7.97;;;4.25;;
54977;SDS011;40873;47.522;19.106;2022-07-23T10:42:14;11.02;;;4.60;;
54977;SDS011;40873;47.522;19.106;2022-07-23T10:44:42;4.93;;;4.18;;
54977;SDS011;40873;47.522;19.106;2022-07-23T10:47:10;7.00;;;4.03;;
54977;SDS011;40873;47.522;19.106;2022-07-23T10:50:25;6.13;;;3.78;;
54977;SDS011;40873;47.522;19.106;2022-07-23T10:58:02;12.10;;;4.90;;
54977;SDS011;40873;47.522;19.106;2022-07-23T11:00:30;9.02;;;4.53;;
54977;SDS011;40873;47.522;19.106;2022-07-23T11:03:00;8.57;;;4.72;;
54977;SDS011;40873;47.522;19.106;2022-07-23T11:05:41;5.20;;;4.70;;
54977;SDS011;40873;47.522;19.106;2022-07-23T11:08:10;6.20;;;4.30;;
54977;SDS011;40873;47.522;19.106;2022-07-23T11:16:11;7.97;;;4.75;;
54977;SDS011;40873;47.522;19.106;2022-07-23T11:31:58;11.30;;;4.78;;
54977;SDS011;40873;47.522;19.106;2022-07-23T11:34:31;9.52;;;4.32;;
54977;SDS011;40873;47.522;19.106;2022-07-23T11:37:06;6.45;;;4.25;;
54977;SDS011;40873;47.522;19.106;2022-07-23T11:39:35;11.18;;;4.30;;
54977;SDS011;40873;47.522;19.106;2022-07-23T11:42:03;6.18;;;4.13;;
54977;SDS011;40873;47.522;19.106;2022-07-23T11:44:33;11.18;;;4.40;;
54977;SDS011;40873;47.522;19.106;2022-07-23T11:47:05;5.55;;;4.65;;
54977;SDS011;40873;47.522;19.106;2022-07-23T11:49:34;6.13;;;4.38;;
54977;SDS011;40873;47.522;19.106;2022-07-23T11:54:46;6.50;;;4.60;;
54977;SDS011;40873;47.522;19.106;2022-07-23T11:57:18;6.70;;;4.50;;
54977;SDS011;40873;47.522;19.106;2022-07-23T11:59:47;6.25;;;4.93;;
54977;SDS011;40873;47.522;19.106;2022-07-23T12:02:19;8.13;;;5.50;;
54977;SDS011;40873;47.522;19.106;2022-07-23T12:04:50;6.90;;;5.18;;
54977;SDS011;40873;47.522;19.106;2022-07-23T12:07:37;8.90;;;4.80;;
54977;SDS011;40873;47.522;19.106;2022-07-23T12:12:57;6.85;;;4.72;;
54977;SDS011;40873;47.522;19.106;2022-07-23T12:15:36;8.95;;;5.28;;
54977;SDS011;40873;47.522;19.106;2022-07-23T12:18:06;8.25;;;5.10;;
54977;SDS011;40873;47.522;19.106;2022-07-23T12:20:39;7.05;;;5.47;;
54977;SDS011;40873;47.522;19.106;2022-07-23T12:23:14;7.35;;;4.78;;
54977;SDS011;40873;47.522;19.106;2022-07-23T12:25:47;9.05;;;5.20;;
54977;SDS011;40873;47.522;19.106;2022-07-23T12:28:19;7.03;;;4.82;;
54977;SDS011;40873;47.522;19.106;2022-07-23T12:30:52;5.80;;;5.20;;
54977;SDS011;40873;47.522;19.106;2022-07-23T12:33:54;5.75;;;5.15;;
54977;SDS011;40873;47.522;19.106;2022-07-23T12:36:17;7.30;;;5.20;;
54977;SDS011;40873;47.522;19.106;2022-07-23T12:38:47;9.07;;;5.55;;
54977;SDS011;40873;47.522;19.106;2022-07-23T12:41:17;6.38;;;5.13;;
54977;SDS011;40873;47.522;19.106;2022-07-23T12:43:45;8.75;;;6.07;;
54977;SDS011;40873;47.522;19.106;2022-07-23T12:46:16;8.23;;;6.22;;
54977;SDS011;40873;47.522;19.106;2022-07-23T12:51:24;8.40;;;5.70;;
54977;SDS011;40873;47.522;19.106;2022-07-23T12:54:03;9.02;;;5.88;;
54977;SDS011;40873;47.522;19.106;2022-07-23T12:56:33;6.90;;;5.22;;
54977;SDS011;40873;47.522;19.106;2022-07-23T12:59:12;6.45;;;5.72;;
54977;SDS011;40873;47.522;19.106;2022-07-23T13:02:02;8.75;;;5.68;;
54977;SDS011;40873;47.522;19.106;2022-07-23T13:04:29;7.35;;;5.32;;
54977;SDS011;40873;47.522;19.106;2022-07-23T13:06:58;7.18;;;4.80;;
54977;SDS011;40873;47.522;19.106;2022-07-23T13:09:30;6.20;;;4.93;;
54977;SDS011;40873;47.522;19.106;2022-07-23T13:12:07;7.00;;;4.60;;
54977;SDS011;40873;47.522;19.106;2022-07-23T13:14:37;8.57;;;4.75;;
54977;SDS011;40873;47.522;19.106;2022-07-23T13:17:05;10.38;;;4.93;;
54977;SDS011;40873;47.522;19.106;2022-07-23T13:19:33;6.65;;;5.05;;
54977;SDS011;40873;47.522;19.106;2022-07-23T13:22:00;5.57;;;4.28;;
54977;SDS011;40873;47.522;19.106;2022-07-23T13:24:34;5.47;;;4.68;;
54977;SDS011;40873;47.522;19.106;2022-07-23T13:27:04;5.90;;;4.22;;
54977;SDS011;40873;47.522;19.106;2022-07-23T13:29:37;6.90;;;4.18;;
54977;SDS011;40873;47.522;19.106;2022-07-23T13:32:03;6.85;;;4.15;;
54977;SDS011;40873;47.522;19.106;2022-07-23T13:34:39;8.88;;;4.78;;
54977;SDS011;40873;47.522;19.106;2022-07-23T13:37:07;8.82;;;4.95;;
54977;SDS011;40873;47.522;19.106;2022-07-23T13:39:34;7.05;;;4.00;;
54977;SDS011;40873;47.522;19.106;2022-07-23T13:42:04;7.40;;;4.32;;
54977;SDS011;40873;47.522;19.106;2022-07-23T13:44:36;7.22;;;4.55;;
54977;SDS011;40873;47.522;19.106;2022-07-23T13:47:02;5.25;;;4.40;;
54977;SDS011;40873;47.522;19.106;2022-07-23T13:49:30;5.88;;;3.92;;
54977;SDS011;40873;47.522;19.106;2022-07-23T13:51:57;10.50;;;4.85;;
54977;SDS011;40873;47.522;19.106;2022-07-23T13:54:24;7.75;;;4.97;;
54977;SDS011;40873;47.522;19.106;2022-07-23T13:56:54;6.35;;;4.75;;
54977;SDS011;40873;47.522;19.106;2022-07-23T13:59:23;7.18;;;4.72;;
54977;SDS011;40873;47.522;19.106;2022-07-23T14:02:10;5.57;;;4.28;;
54977;SDS011;40873;47.522;19.106;2022-07-23T14:04:50;5.68;;;4.38;;
54977;SDS011;40873;47.522;19.106;2022-07-23T14:07:17;5.93;;;3.92;;
54977;SDS011;40873;47.522;19.106;2022-07-23T14:09:46;5.93;;;4.40;;
54977;SDS011;40873;47.522;19.106;2022-07-23T14:12:13;10.10;;;5.00;;
54977;SDS011;40873;47.522;19.106;2022-07-23T14:14:43;5.75;;;4.32;;
54977;SDS011;40873;47.522;19.106;2022-07-23T14:17:10;6.43;;;4.72;;
54977;SDS011;40873;47.522;19.106;2022-07-23T14:19:37;5.55;;;4.50;;
54977;SDS011;40873;47.522;19.106;2022-07-23T14:22:04;8.65;;;5.22;;
54977;SDS011;40873;47.522;19.106;2022-07-23T14:24:32;5.78;;;4.82;;
54977;SDS011;40873;47.522;19.106;2022-07-23T14:27:01;5.40;;;4.55;;
54977;SDS011;40873;47.522;19.106;2022-07-23T14:29:32;6.37;;;5.53;;
54977;SDS011;40873;47.522;19.106;2022-07-23T14:32:00;7.05;;;5.68;;
54977;SDS011;40873;47.522;19.106;2022-07-23T14:34:28;6.35;;;5.38;;
54977;SDS011;40873;47.522;19.106;2022-07-23T14:36:55;5.68;;;4.80;;
54977;SDS011;40873;47.522;19.106;2022-07-23T14:39:22;5.38;;;4.88;;
54977;SDS011;40873;47.522;19.106;2022-07-23T14:41:49;7.38;;;5.65;;
54977;SDS011;40873;47.522;19.106;2022-07-23T14:44:16;6.40;;;5.25;;
54977;SDS011;40873;47.522;19.106;2022-07-23T14:46:44;5.90;;;4.75;;
54977;SDS011;40873;47.522;19.106;2022-07-23T14:49:11;6.60;;;4.55;;
54977;SDS011;40873;47.522;19.106;2022-07-23T14:51:38;5.93;;;4.80;;
54977;SDS011;40873;47.522;19.106;2022-07-23T14:54:07;8.23;;;4.55;;
54977;SDS011;40873;47.522;19.106;2022-07-23T14:56:34;5.75;;;5.25;;
54977;SDS011;40873;47.522;19.106;2022-07-23T14:59:03;9.50;;;5.22;;
54977;SDS011;40873;47.522;19.106;2022-07-23T15:01:31;8.35;;;4.70;;
54977;SDS011;40873;47.522;19.106;2022-07-23T15:04:00;6.68;;;4.43;;
54977;SDS011;40873;47.522;19.106;2022-07-23T15:06:47;6.28;;;4.07;;
54977;SDS011;40873;47.522;19.106;2022-07-23T15:09:15;5.38;;;4.38;;
54977;SDS011;40873;47.522;19.106;2022-07-23T15:11:42;6.60;;;4.75;;
54977;SDS011;40873;47.522;19.106;2022-07-23T15:14:09;5.15;;;4.65;;
54977;SDS011;40873;47.522;19.106;2022-07-23T15:16:43;5.80;;;4.38;;
54977;SDS011;40873;47.522;19.106;2022-07-23T15:19:10;10.30;;;4.75;;
54977;SDS011;40873;47.522;19.106;2022-07-23T15:21:38;6.03;;;4.57;;
54977;SDS011;40873;47.522;19.106;2022-07-23T15:24:05;5.30;;;4.88;;
54977;SDS011;40873;47.522;19.106;2022-07-23T15:26:32;5.80;;;5.00;;
54977;SDS011;40873;47.522;19.106;2022-07-23T15:28:59;7.57;;;5.03;;
54977;SDS011;40873;47.522;19.106;2022-07-23T15:31:26;6.45;;;5.72;;
54977;SDS011;40873;47.522;19.106;2022-07-23T15:33:54;7.45;;;5.20;;
54977;SDS011;40873;47.522;19.106;2022-07-23T15:36:21;8.45;;;5.30;;
54977;SDS011;40873;47.522;19.106;2022-07-23T15:38:48;8.27;;;5.43;;
54977;SDS011;40873;47.522;19.106;2022-07-23T15:41:17;5.82;;;5.32;;
54977;SDS011;40873;47.522;19.106;2022-07-23T15:43:49;6.83;;;6.20;;
54977;SDS011;40873;47.522;19.106;2022-07-23T15:46:17;17.38;;;6.45;;
54977;SDS011;40873;47.522;19.106;2022-07-23T15:48:52;26.63;;;8.02;;